createdAt,value
2017-08-01T00:00:29.963Z,21.43
2017-08-01T00:01:30.316Z,21.44
2017-08-01T00:02:30.019Z,21.32
2017-08-01T00:03:30.054Z,21.43
2017-08-01T00:04:30.393Z,21.31
2017-08-01T00:05:45.012Z,21.34
2017-08-01T00:06:45.053Z,21.24
2017-08-01T00:07:30.458Z,21.1
2017-08-01T00:08:30.502Z,21.06
2017-08-01T00:09:30.189Z,21.03
2017-08-01T00:10:30.239Z,21.06
2017-08-01T00:11:30.262Z,21.09
2017-08-01T00:12:30.902Z,21.16
2017-08-01T00:13:30.620Z,21.14
2017-08-01T00:15:30.685Z,21.01
2017-08-01T00:16:30.705Z,20.97
2017-08-01T00:17:30.730Z,20.95
2017-08-01T00:18:30.744Z,21.1
2017-08-01T00:21:30.826Z,21.03
2017-08-01T00:22:30.866Z,21.07
2017-08-01T00:23:30.877Z,21.09
2017-08-01T00:24:30.948Z,20.95
2017-08-01T00:25:45.546Z,21.01
2017-08-01T00:26:45.560Z,20.95
2017-08-01T00:27:30.975Z,20.92
2017-08-01T00:28:31.025Z,21.03
2017-08-01T00:29:31.043Z,21.07
2017-08-01T00:30:31.070Z,21.09
2017-08-01T00:31:31.082Z,21.06
2017-08-01T00:32:30.823Z,21.19
2017-08-01T00:33:31.139Z,21.31
2017-08-01T00:34:31.183Z,21.28
2017-08-01T00:35:31.193Z,21.34
2017-08-01T00:36:31.234Z,21.32
2017-08-01T00:37:30.947Z,21.32
2017-08-01T00:38:31.281Z,21.37
2017-08-01T00:39:31.291Z,21.32
2017-08-01T00:40:31.347Z,21.32
2017-08-01T00:41:31.366Z,21.37
2017-08-01T00:42:45.983Z,21.35
2017-08-01T00:43:31.414Z,21.4
2017-08-01T00:44:31.423Z,21.44
2017-08-01T00:45:31.468Z,21.38
2017-08-01T00:46:31.482Z,21.49
2017-08-01T00:47:31.513Z,21.37
2017-08-01T00:48:31.540Z,21.44
2017-08-01T00:49:31.563Z,21.4
2017-08-01T00:50:31.594Z,21.46
2017-08-01T00:51:31.609Z,21.4
2017-08-01T00:52:31.651Z,21.4
2017-08-01T00:53:31.353Z,21.4
2017-08-01T00:54:31.698Z,21.34
2017-08-01T00:55:31.726Z,21.37
2017-08-01T00:56:31.739Z,21.44
2017-08-01T00:57:31.780Z,21.47
2017-08-01T00:59:31.821Z,21.47
2017-08-01T01:00:31.851Z,21.54
2017-08-01T01:01:46.466Z,21.43
2017-08-01T01:02:31.602Z,21.46
2017-08-01T01:03:31.617Z,21.46
2017-08-01T01:04:46.815Z,21.5
2017-08-01T01:06:31.699Z,21.52
2017-08-01T01:08:31.736Z,21.43
2017-08-01T01:09:46.680Z,21.5
2017-08-01T01:10:32.115Z,21.59
2017-08-01T01:11:32.139Z,21.53
2017-08-01T01:12:31.866Z,21.62
2017-08-01T01:13:32.182Z,21.52
2017-08-01T01:14:46.821Z,21.53
2017-08-01T01:15:32.245Z,21.56
2017-08-01T01:16:32.263Z,21.53
2017-08-01T01:17:32.302Z,21.49
2017-08-01T01:18:32.313Z,21.42
2017-08-01T01:19:32.357Z,21.49
2017-08-01T01:22:32.407Z,21.42
2017-08-01T01:23:32.454Z,21.49
2017-08-01T01:24:47.076Z,21.49
2017-08-01T01:25:47.101Z,21.47
2017-08-01T01:26:32.523Z,21.47
2017-08-01T01:27:32.562Z,21.46
2017-08-01T01:28:32.579Z,21.52
2017-08-01T01:29:46.911Z,21.46
2017-08-01T01:30:32.633Z,21.47
2017-08-01T01:31:32.655Z,21.47
2017-08-01T01:32:32.686Z,21.44
2017-08-01T01:33:32.738Z,21.42
2017-08-01T01:34:32.744Z,21.25
2017-08-01T01:35:47.349Z,21.32
2017-08-01T01:36:32.803Z,21.28
2017-08-01T01:37:32.825Z,21.31
2017-08-01T01:38:32.854Z,21.42
2017-08-01T01:39:32.874Z,21.44
2017-08-01T01:40:32.890Z,21.43
2017-08-01T01:42:32.941Z,21.34
2017-08-01T01:43:32.984Z,21.43
2017-08-01T01:44:32.994Z,21.44
2017-08-01T01:45:33.025Z,21.5
2017-08-01T01:46:33.054Z,21.54
2017-08-01T01:47:33.081Z,21.5
2017-08-01T01:48:33.107Z,21.67
2017-08-01T01:49:32.826Z,21.58
2017-08-01T01:50:47.744Z,21.49
2017-08-01T01:51:33.180Z,21.44
2017-08-01T01:53:33.246Z,21.49
2017-08-01T01:54:33.257Z,21.34
2017-08-01T01:55:47.889Z,21.29
2017-08-01T01:56:33.316Z,21.37
2017-08-01T01:57:33.330Z,21.22
2017-08-01T01:58:33.373Z,21.19
2017-08-01T01:59:33.407Z,21.12
2017-08-01T02:00:33.430Z,21.06
2017-08-01T02:01:47.727Z,20.94
2017-08-01T02:02:48.061Z,20.97
2017-08-01T02:03:33.484Z,20.91
2017-08-01T02:04:33.527Z,20.94
2017-08-01T02:05:33.535Z,20.94
2017-08-01T02:06:33.576Z,20.88
2017-08-01T02:07:33.581Z,20.8
2017-08-01T02:08:33.632Z,20.76
2017-08-01T02:09:33.323Z,20.76
2017-08-01T02:10:48.274Z,20.74
2017-08-01T02:11:33.707Z,20.69
2017-08-01T02:12:33.730Z,20.77
2017-08-01T02:13:33.762Z,20.69
2017-08-01T02:14:33.779Z,20.67
2017-08-01T02:15:33.832Z,20.67
2017-08-01T02:16:33.834Z,20.67
2017-08-01T02:17:48.450Z,20.67
2017-08-01T02:18:33.875Z,20.73
2017-08-01T02:19:33.607Z,20.67
2017-08-01T02:20:33.942Z,20.69
2017-08-01T02:21:33.973Z,20.59
2017-08-01T02:22:33.989Z,20.69
2017-08-01T02:23:34.005Z,20.72
2017-08-01T02:24:34.036Z,20.82
2017-08-01T02:25:33.762Z,20.79
2017-08-01T02:26:48.689Z,20.79
2017-08-01T02:27:34.128Z,20.85
2017-08-01T02:28:34.144Z,20.76
2017-08-01T02:29:34.174Z,20.72
2017-08-01T02:30:34.192Z,20.85
2017-08-01T02:31:34.218Z,20.88
2017-08-01T02:32:34.250Z,20.87
2017-08-01T02:33:48.872Z,20.89
2017-08-01T02:35:34.327Z,21.03
2017-08-01T02:36:34.350Z,20.98
2017-08-01T02:37:34.372Z,20.99
2017-08-01T02:38:34.391Z,20.92
2017-08-01T02:39:34.428Z,20.94
2017-08-01T02:40:34.137Z,20.91
2017-08-01T02:41:34.486Z,20.99
2017-08-01T02:42:34.505Z,21.03
2017-08-01T02:43:34.218Z,21.12
2017-08-01T02:44:34.534Z,21.19
2017-08-01T02:45:34.571Z,21.22
2017-08-01T02:46:34.618Z,21.25
2017-08-01T02:47:34.640Z,21.17
2017-08-01T02:48:34.342Z,21.21
2017-08-01T02:50:34.713Z,21.31
2017-08-01T02:52:34.759Z,21.46
2017-08-01T02:53:34.792Z,21.37
2017-08-01T02:54:34.835Z,21.38
2017-08-01T02:55:34.880Z,21.44
2017-08-01T02:56:34.869Z,21.38
2017-08-01T02:57:34.898Z,21.47
2017-08-01T02:58:34.933Z,21.4
2017-08-01T02:59:34.930Z,21.46
2017-08-01T03:00:34.664Z,21.49
2017-08-01T03:01:34.996Z,21.37
2017-08-01T03:02:35.017Z,21.38
2017-08-01T03:03:35.042Z,21.4
2017-08-01T03:04:49.698Z,21.19
2017-08-01T03:05:35.105Z,21.31
2017-08-01T03:06:34.807Z,21.37
2017-08-01T03:07:35.144Z,21.34
2017-08-01T03:08:35.163Z,21.31
2017-08-01T03:09:35.210Z,21.38
2017-08-01T03:10:34.902Z,21.43
2017-08-01T03:11:35.262Z,21.37
2017-08-01T03:12:35.281Z,21.47
2017-08-01T03:13:35.295Z,21.46
2017-08-01T03:14:35.028Z,21.54
2017-08-01T03:15:35.369Z,21.58
2017-08-01T03:16:35.370Z,21.62
2017-08-01T03:17:35.410Z,21.58
2017-08-01T03:18:35.427Z,21.69
2017-08-01T03:19:35.470Z,21.83
2017-08-01T03:20:35.471Z,21.71
2017-08-01T03:21:35.523Z,21.69
2017-08-01T03:22:50.127Z,21.54
2017-08-01T03:23:50.169Z,21.44
2017-08-01T03:24:35.595Z,21.32
2017-08-01T03:25:35.612Z,21.34
2017-08-01T03:26:35.641Z,21.25
2017-08-01T03:27:35.668Z,21.25
2017-08-01T03:28:35.697Z,21.28
2017-08-01T03:29:35.725Z,21.32
2017-08-01T03:31:35.450Z,21.24
2017-08-01T03:32:35.794Z,21.22
2017-08-01T03:33:35.826Z,21.28
2017-08-01T03:34:50.458Z,21.19
2017-08-01T03:35:35.874Z,21.21
2017-08-01T03:36:50.499Z,21.09
2017-08-01T03:37:35.923Z,21.13
2017-08-01T03:38:35.930Z,21.06
2017-08-01T03:39:50.586Z,20.92
2017-08-01T03:41:36.037Z,21.12
2017-08-01T03:42:36.047Z,21.01
2017-08-01T03:43:36.081Z,21.13
2017-08-01T03:44:50.756Z,20.94
2017-08-01T03:45:36.141Z,20.98
2017-08-01T03:46:35.852Z,21.01
2017-08-01T03:47:36.174Z,20.94
2017-08-01T03:48:36.211Z,20.95
2017-08-01T03:49:36.219Z,21.09
2017-08-01T03:50:36.265Z,21.13
2017-08-01T03:51:50.882Z,21.07
2017-08-01T03:52:50.915Z,21.07
2017-08-01T03:53:36.373Z,21.04
2017-08-01T03:54:36.371Z,21.04
2017-08-01T03:55:36.385Z,20.97
2017-08-01T03:56:36.106Z,20.98
2017-08-01T03:57:36.436Z,21.03
2017-08-01T03:58:36.474Z,21.19
2017-08-01T03:59:36.495Z,21.19
2017-08-01T04:00:36.216Z,21.17
2017-08-01T04:01:36.535Z,21.19
2017-08-01T04:02:36.584Z,21.22
2017-08-01T04:03:36.609Z,21.14
2017-08-01T04:04:36.317Z,21.16
2017-08-01T04:05:36.656Z,21.13
2017-08-01T04:06:36.360Z,21.25
2017-08-01T04:07:36.418Z,21.25
2017-08-01T04:09:36.485Z,21.34
2017-08-01T04:10:36.773Z,21.4
2017-08-01T04:11:36.806Z,21.34
2017-08-01T04:12:36.821Z,21.31
2017-08-01T04:13:36.868Z,21.29
2017-08-01T04:14:36.874Z,21.32
2017-08-01T04:16:36.621Z,21.24
2017-08-01T04:17:36.642Z,21.22
2017-08-01T04:18:36.667Z,21.16
2017-08-01T04:22:37.088Z,21.17
2017-08-01T04:23:37.131Z,21.24
2017-08-01T04:24:51.729Z,21.14
2017-08-01T04:25:36.858Z,21.17
2017-08-01T04:26:37.202Z,21.13
2017-08-01T04:27:37.227Z,21.19
2017-08-01T04:28:37.243Z,21.19
2017-08-01T04:29:37.281Z,21.21
2017-08-01T04:30:37.285Z,21.14
2017-08-01T04:31:51.925Z,21.1
2017-08-01T04:32:37.340Z,21.06
2017-08-01T04:33:37.377Z,21.06
2017-08-01T04:34:51.998Z,21.17
2017-08-01T04:35:37.434Z,21.21
2017-08-01T04:36:37.453Z,21.25
2017-08-01T04:37:37.481Z,21.38
2017-08-01T04:38:37.489Z,21.38
2017-08-01T04:39:52.126Z,21.38
2017-08-01T04:40:37.545Z,21.42
2017-08-01T04:41:52.169Z,21.37
2017-08-01T04:42:37.620Z,21.34
2017-08-01T04:43:37.631Z,21.32
2017-08-01T04:45:37.658Z,21.38
2017-08-01T04:46:37.748Z,21.4
2017-08-01T04:47:37.728Z,21.4
2017-08-01T04:48:37.761Z,21.47
2017-08-01T04:49:37.766Z,21.44
2017-08-01T04:50:37.833Z,21.43
2017-08-01T04:51:37.840Z,21.46
2017-08-01T04:52:37.853Z,21.35
2017-08-01T04:53:37.895Z,21.43
2017-08-01T04:54:37.908Z,21.49
2017-08-01T04:55:37.943Z,21.44
2017-08-01T04:56:37.966Z,21.42
2017-08-01T04:57:37.996Z,21.47
2017-08-01T04:58:38.071Z,21.58
2017-08-01T04:59:38.048Z,21.52
2017-08-01T05:00:38.064Z,21.56
2017-08-01T05:01:38.105Z,21.53
2017-08-01T05:02:38.134Z,21.58
2017-08-01T05:03:38.139Z,21.61
2017-08-01T05:04:38.159Z,21.5
2017-08-01T05:05:38.197Z,21.44
2017-08-01T05:06:38.232Z,21.43
2017-08-01T05:07:38.252Z,21.43
2017-08-01T05:08:38.267Z,21.38
2017-08-01T05:09:37.991Z,21.32
2017-08-01T05:10:38.321Z,21.32
2017-08-01T05:11:52.958Z,21.24
2017-08-01T05:12:38.373Z,21.25
2017-08-01T05:14:38.438Z,21.34
2017-08-01T05:15:38.440Z,21.27
2017-08-01T05:17:38.490Z,21.21
2017-08-01T05:19:38.560Z,21.1
2017-08-01T05:20:38.591Z,21.06
2017-08-01T05:21:38.298Z,21.06
2017-08-01T05:22:38.625Z,21.07
2017-08-01T05:23:38.645Z,21.14
2017-08-01T05:24:38.730Z,21.07
2017-08-01T05:25:38.713Z,21.03
2017-08-01T05:26:38.739Z,21.13
2017-08-01T05:27:53.352Z,21.19
2017-08-01T05:28:38.800Z,21.13
2017-08-01T05:29:38.811Z,21.22
2017-08-01T05:30:38.853Z,21.24
2017-08-01T05:31:38.870Z,21.17
2017-08-01T05:32:38.899Z,21.14
2017-08-01T05:33:38.608Z,21.09
2017-08-01T05:34:38.939Z,21.19
2017-08-01T05:35:38.974Z,21.13
2017-08-01T05:36:39.002Z,20.97
2017-08-01T05:37:39.029Z,20.99
2017-08-01T05:38:39.036Z,20.88
2017-08-01T05:39:39.074Z,20.91
2017-08-01T05:40:38.788Z,20.95
2017-08-01T05:41:39.111Z,20.92
2017-08-01T05:42:39.152Z,20.89
2017-08-01T05:43:53.760Z,20.87
2017-08-01T05:44:38.895Z,20.99
2017-08-01T05:45:39.217Z,21.03
2017-08-01T05:46:39.259Z,20.99
2017-08-01T05:47:39.278Z,20.85
2017-08-01T05:48:38.994Z,20.92
2017-08-01T05:49:39.335Z,20.82
2017-08-01T05:50:39.352Z,20.85
2017-08-01T05:51:39.389Z,20.82
2017-08-01T05:52:39.386Z,20.77
2017-08-01T05:53:54.030Z,20.85
2017-08-01T05:54:39.464Z,20.67
2017-08-01T05:55:39.473Z,20.8
2017-08-01T05:56:39.520Z,20.77
2017-08-01T05:58:39.254Z,20.67
2017-08-01T05:59:54.181Z,20.76
2017-08-01T06:00:54.203Z,20.74
2017-08-01T06:01:39.328Z,20.82
2017-08-01T06:02:39.675Z,20.77
2017-08-01T06:03:39.378Z,20.72
2017-08-01T06:04:39.403Z,20.74
2017-08-01T06:05:39.417Z,20.66
2017-08-01T06:06:39.464Z,20.62
2017-08-01T06:07:39.782Z,20.59
2017-08-01T06:08:39.873Z,20.62
2017-08-01T06:09:39.837Z,20.55
2017-08-01T06:10:39.865Z,20.52
2017-08-01T06:12:39.919Z,20.51
2017-08-01T06:13:39.938Z,20.43
2017-08-01T06:14:54.568Z,20.39
2017-08-01T06:15:40.006Z,20.24
2017-08-01T06:16:40.025Z,20.2
2017-08-01T06:17:40.100Z,20.13
2017-08-01T06:18:40.051Z,20.03
2017-08-01T06:19:40.112Z,19.88
2017-08-01T06:20:40.128Z,19.77
2017-08-01T06:21:40.151Z,19.62
2017-08-01T06:22:39.870Z,19.61
2017-08-01T06:24:40.221Z,19.61
2017-08-01T06:25:40.261Z,19.59
2017-08-01T06:27:40.311Z,19.59
2017-08-01T06:29:40.364Z,19.59
2017-08-01T06:30:40.369Z,19.73
2017-08-01T06:31:40.407Z,19.73
2017-08-01T06:32:40.436Z,19.92
2017-08-01T06:33:40.449Z,19.88
2017-08-01T06:34:40.476Z,19.99
2017-08-01T06:35:40.492Z,20.02
2017-08-01T06:36:40.530Z,20.01
2017-08-01T06:37:40.546Z,19.95
2017-08-01T06:38:40.270Z,20.01
2017-08-01T06:39:40.596Z,19.98
2017-08-01T06:40:40.333Z,19.84
2017-08-01T06:41:40.657Z,19.98
2017-08-01T06:42:40.676Z,20.03
2017-08-01T06:43:40.703Z,20.11
2017-08-01T06:44:40.719Z,20.03
2017-08-01T06:45:55.364Z,20.1
2017-08-01T06:46:55.369Z,20.16
2017-08-01T06:47:40.802Z,20.13
2017-08-01T06:48:40.834Z,20.08
2017-08-01T06:49:55.459Z,20.21
2017-08-01T06:50:40.887Z,20.32
2017-08-01T06:51:40.601Z,20.42
2017-08-01T06:52:40.918Z,20.47
2017-08-01T06:53:40.960Z,20.72
2017-08-01T06:54:40.962Z,20.66
2017-08-01T06:55:41.018Z,20.84
2017-08-01T06:56:41.019Z,20.92
2017-08-01T06:57:40.754Z,21.07
2017-08-01T06:58:41.076Z,21.1
2017-08-01T06:59:41.117Z,21.28
2017-08-01T07:00:40.817Z,21.35
2017-08-01T07:01:41.164Z,21.5
2017-08-01T07:02:55.838Z,21.67
2017-08-01T07:03:41.200Z,21.82
2017-08-01T07:04:40.928Z,22.15
2017-08-01T07:05:40.941Z,22.31
2017-08-01T07:06:40.986Z,22.8
2017-08-01T07:07:41.004Z,23.1
2017-08-01T07:08:41.544Z,23.17
2017-08-01T07:09:41.063Z,23.15
2017-08-01T07:10:55.992Z,23.33
2017-08-01T07:11:41.420Z,23.39
2017-08-01T07:12:41.148Z,23.69
2017-08-01T07:13:41.480Z,24.13
2017-08-01T07:14:41.498Z,24.52
2017-08-01T07:15:41.216Z,24.98
2017-08-01T07:16:41.557Z,25.21
2017-08-01T07:17:41.594Z,25.47
2017-08-01T07:18:56.203Z,25.6
2017-08-01T07:19:41.653Z,25.79
2017-08-01T07:21:41.704Z,26.23
2017-08-01T07:22:41.744Z,26.36
2017-08-01T07:23:41.760Z,26.81
2017-08-01T07:24:41.782Z,27.04
2017-08-01T07:25:41.810Z,27.32
2017-08-01T07:26:41.855Z,27.14
2017-08-01T07:27:41.876Z,27
2017-08-01T07:28:41.919Z,26.55
2017-08-01T07:29:41.930Z,26.3
2017-08-01T07:30:41.672Z,26.05
2017-08-01T07:31:42.004Z,25.77
2017-08-01T07:32:56.631Z,26.07
2017-08-01T07:33:42.079Z,26.43
2017-08-01T07:34:56.687Z,26.94
2017-08-01T07:35:41.825Z,26.97
2017-08-01T07:36:42.150Z,27.47
2017-08-01T07:37:42.203Z,28.09
2017-08-01T07:38:42.232Z,28.73
2017-08-01T07:39:41.941Z,29.06
2017-08-01T07:40:42.282Z,29.42
2017-08-01T07:41:42.329Z,29.49
2017-08-01T07:42:42.359Z,29.57
2017-08-01T07:43:42.438Z,30.1
2017-08-01T07:44:57.027Z,29.98
2017-08-01T07:45:42.461Z,30.05
2017-08-01T07:46:42.175Z,29.78
2017-08-01T07:47:42.526Z,29.42
2017-08-01T07:48:42.550Z,29.02
2017-08-01T07:49:57.183Z,29.06
2017-08-01T07:50:42.623Z,29.15
2017-08-01T07:51:42.652Z,29.57
2017-08-01T07:52:42.704Z,29.37
2017-08-01T07:53:42.720Z,29.08
2017-08-01T07:54:42.778Z,28.86
2017-08-01T07:55:42.800Z,28.68
2017-08-01T07:56:42.532Z,28.49
2017-08-01T07:57:42.856Z,28.17
2017-08-01T07:58:42.906Z,28
2017-08-01T07:59:42.936Z,28.37
2017-08-01T08:00:42.956Z,28.74
2017-08-01T08:01:42.992Z,29.55
2017-08-01T08:02:43.011Z,29.52
2017-08-01T08:03:43.062Z,29.41
2017-08-01T08:04:43.099Z,29.27
2017-08-01T08:05:43.131Z,28.67
2017-08-01T08:06:43.156Z,28.24
2017-08-01T08:07:42.892Z,27.87
2017-08-01T08:08:57.819Z,27.85
2017-08-01T08:09:57.866Z,27.81
2017-08-01T08:10:43.283Z,27.84
2017-08-01T08:11:43.326Z,27.7
2017-08-01T08:12:43.046Z,27.4
2017-08-01T08:13:43.408Z,27.1
2017-08-01T08:14:43.427Z,26.75
2017-08-01T08:15:43.462Z,26.57
2017-08-01T08:16:43.181Z,26.47
2017-08-01T08:17:43.192Z,26.43
2017-08-01T08:18:43.553Z,26.54
2017-08-01T08:19:43.569Z,26.7
2017-08-01T08:20:43.609Z,26.55
2017-08-01T08:21:58.244Z,26.62
2017-08-01T08:22:43.356Z,26.63
2017-08-01T08:24:43.736Z,27.66
2017-08-01T08:25:43.782Z,28.25
2017-08-01T08:26:43.484Z,28.52
2017-08-01T08:27:43.829Z,28.83
2017-08-01T08:28:43.860Z,29.46
2017-08-01T08:29:43.886Z,30.11
2017-08-01T08:30:43.625Z,30.62
2017-08-01T08:31:43.647Z,30.97
2017-08-01T08:32:43.992Z,30.79
2017-08-01T08:33:43.698Z,31.07
2017-08-01T08:34:44.051Z,31.51
2017-08-01T08:35:43.762Z,31.26
2017-08-01T08:36:44.122Z,31.04
2017-08-01T08:37:58.748Z,31.31
2017-08-01T08:38:44.189Z,31.39
2017-08-01T08:39:43.904Z,31.44
2017-08-01T08:40:58.860Z,31.69
2017-08-01T08:41:44.275Z,31.8
2017-08-01T08:42:44.326Z,31.91
2017-08-01T08:43:44.359Z,31.78
2017-08-01T08:44:44.377Z,31.57
2017-08-01T08:45:44.418Z,31.7
2017-08-01T08:46:59.054Z,31.63
2017-08-01T08:47:44.190Z,31.66
2017-08-01T08:48:44.525Z,31.44
2017-08-01T08:49:44.560Z,31.29
2017-08-01T08:50:44.575Z,31.06
2017-08-01T08:51:44.635Z,31.26
2017-08-01T08:52:44.651Z,31.38
2017-08-01T08:53:59.303Z,31.25
2017-08-01T08:54:44.792Z,31.41
2017-08-01T08:55:44.765Z,31.78
2017-08-01T08:56:44.495Z,32.03
2017-08-01T08:58:44.863Z,31.57
2017-08-01T08:59:59.484Z,31.46
2017-08-01T09:00:44.955Z,31.5
2017-08-01T09:02:44.995Z,31.75
2017-08-01T09:03:44.730Z,31.78
2017-08-01T09:04:44.759Z,31.78
2017-08-01T09:05:45.105Z,32.22
2017-08-01T09:07:45.161Z,32.52
2017-08-01T09:08:45.200Z,32.79
2017-08-01T09:09:59.832Z,33.21
2017-08-01T09:10:45.277Z,33.41
2017-08-01T09:11:45.310Z,33.66
2017-08-01T09:12:59.927Z,34.19
2017-08-01T09:13:45.376Z,34.46
2017-08-01T09:14:45.411Z,34.34
2017-08-01T09:15:45.143Z,34.09
2017-08-01T09:16:45.470Z,34.35
2017-08-01T09:17:45.531Z,34.05
2017-08-01T09:18:45.557Z,34.3
2017-08-01T09:19:45.592Z,34.12
2017-08-01T09:21:00.214Z,34.28
2017-08-01T09:21:45.659Z,34.4
2017-08-01T09:22:45.685Z,34.54
2017-08-01T09:23:45.722Z,34.28
2017-08-01T09:25:00.046Z,34.31
2017-08-01T09:26:45.510Z,33.73
2017-08-01T09:27:45.863Z,33.94
2017-08-01T09:28:45.911Z,33.87
2017-08-01T09:30:45.962Z,33.56
2017-08-01T09:31:45.998Z,33.44
2017-08-01T09:32:46.040Z,33.47
2017-08-01T09:33:45.756Z,33.84
2017-08-01T09:34:46.093Z,34.22
2017-08-01T09:35:46.129Z,34.31
2017-08-01T09:36:45.870Z,34.03
2017-08-01T09:37:45.899Z,34.21
2017-08-01T09:38:46.253Z,34.42
2017-08-01T09:39:46.257Z,34.21
2017-08-01T09:40:46.310Z,34.19
2017-08-01T09:41:46.017Z,34.78
2017-08-01T09:42:46.392Z,34.69
2017-08-01T09:43:46.423Z,34.81
2017-08-01T09:44:46.457Z,34.99
2017-08-01T09:45:46.492Z,35.14
2017-08-01T09:46:46.518Z,35.25
2017-08-01T09:47:46.561Z,34.97
2017-08-01T09:48:46.589Z,35.11
2017-08-01T09:49:46.629Z,35.04
2017-08-01T09:51:01.259Z,34.92
2017-08-01T09:51:46.707Z,34.89
2017-08-01T09:52:46.715Z,35.03
2017-08-01T09:53:46.766Z,34.89
2017-08-01T09:54:46.781Z,34.84
2017-08-01T09:56:01.421Z,34.72
2017-08-01T09:57:01.466Z,34.69
2017-08-01T09:58:46.936Z,34.06
2017-08-01T09:59:46.655Z,34.08
2017-08-01T10:00:46.983Z,34.39
2017-08-01T10:01:47.038Z,34.42
2017-08-01T10:02:47.075Z,34.3
2017-08-01T10:03:47.143Z,34.31
2017-08-01T10:04:47.136Z,34.77
2017-08-01T10:06:01.773Z,34.91
2017-08-01T10:06:47.218Z,35.07
2017-08-01T10:07:47.245Z,34.91
2017-08-01T10:08:47.280Z,35.1
2017-08-01T10:09:47.315Z,35.02
2017-08-01T10:11:01.946Z,34.77
2017-08-01T10:11:47.386Z,34.97
2017-08-01T10:13:02.015Z,35.15
2017-08-01T10:14:02.045Z,35.21
2017-08-01T10:14:47.488Z,35.16
2017-08-01T10:15:47.520Z,35.03
2017-08-01T10:16:47.574Z,35.1
2017-08-01T10:17:47.572Z,34.99
2017-08-01T10:18:47.626Z,34.46
2017-08-01T10:19:47.345Z,34.8
2017-08-01T10:20:47.691Z,34.84
2017-08-01T10:21:47.722Z,34.82
2017-08-01T10:23:02.362Z,34.65
2017-08-01T10:23:47.794Z,34.43
2017-08-01T10:25:47.880Z,34.3
2017-08-01T10:26:47.903Z,34.09
2017-08-01T10:27:47.913Z,34.22
2017-08-01T10:29:02.578Z,34.42
2017-08-01T10:29:47.996Z,34.28
2017-08-01T10:31:02.627Z,34.31
2017-08-01T10:31:48.071Z,34.3
2017-08-01T10:32:48.107Z,34.34
2017-08-01T10:33:48.152Z,34.35
2017-08-01T10:34:48.174Z,33.9
2017-08-01T10:35:47.889Z,33.73
2017-08-01T10:36:48.241Z,33.44
2017-08-01T10:38:02.876Z,33.09
2017-08-01T10:38:48.305Z,33.03
2017-08-01T10:39:48.343Z,32.93
2017-08-01T10:40:48.383Z,32.79
2017-08-01T10:41:48.403Z,32.56
2017-08-01T10:42:48.145Z,32.56
2017-08-01T10:43:48.462Z,32.44
2017-08-01T10:45:03.111Z,32.14
2017-08-01T10:45:48.222Z,31.99
2017-08-01T10:46:48.574Z,31.76
2017-08-01T10:47:48.309Z,31.85
2017-08-01T10:48:48.651Z,31.78
2017-08-01T10:49:48.680Z,31.78
2017-08-01T10:50:48.702Z,31.69
2017-08-01T10:51:48.454Z,31.7
2017-08-01T10:52:48.771Z,31.66
2017-08-01T10:53:48.809Z,31.81
2017-08-01T10:55:48.871Z,31.73
2017-08-01T10:56:48.930Z,31.75
2017-08-01T10:57:48.950Z,31.76
2017-08-01T10:58:48.980Z,31.8
2017-08-01T11:00:03.608Z,31.48
2017-08-01T11:00:49.039Z,31.56
2017-08-01T11:01:49.064Z,31.48
2017-08-01T11:02:49.111Z,31.57
2017-08-01T11:03:49.146Z,31.47
2017-08-01T11:04:49.188Z,31.61
2017-08-01T11:05:49.212Z,31.57
2017-08-01T11:06:49.245Z,31.44
2017-08-01T11:08:03.874Z,31.44
2017-08-01T11:08:49.001Z,31.47
2017-08-01T11:09:49.021Z,31.53
2017-08-01T11:10:49.386Z,31.47
2017-08-01T11:11:49.398Z,31.48
2017-08-01T11:13:04.034Z,31.38
2017-08-01T11:13:49.462Z,31.43
2017-08-01T11:14:49.501Z,31.53
2017-08-01T11:15:49.542Z,31.65
2017-08-01T11:16:49.577Z,31.58
2017-08-01T11:17:49.274Z,31.73
2017-08-01T11:18:49.621Z,31.72
2017-08-01T11:19:49.350Z,31.69
2017-08-01T11:20:49.384Z,31.72
2017-08-01T11:21:49.768Z,31.7
2017-08-01T11:22:49.463Z,31.62
2017-08-01T11:23:49.794Z,31.68
2017-08-01T11:25:04.426Z,31.73
2017-08-01T11:26:49.596Z,31.75
2017-08-01T11:27:49.923Z,31.78
2017-08-01T11:28:49.650Z,31.78
2017-08-01T11:29:49.986Z,31.72
2017-08-01T11:30:50.008Z,31.78
2017-08-01T11:32:04.340Z,31.62
2017-08-01T11:32:50.092Z,31.76
2017-08-01T11:33:50.118Z,31.75
2017-08-01T11:34:50.174Z,31.8
2017-08-01T11:35:49.871Z,31.61
2017-08-01T11:36:50.225Z,31.53
2017-08-01T11:38:49.973Z,31.72
2017-08-01T11:39:50.320Z,31.78
2017-08-01T11:40:50.024Z,31.84
2017-08-01T11:41:49.747Z,31.76
2017-08-01T11:42:50.082Z,31.57
2017-08-01T11:43:50.419Z,31.72
2017-08-01T11:44:50.456Z,31.81
2017-08-01T11:45:50.500Z,31.62
2017-08-01T11:46:50.542Z,31.48
2017-08-01T11:48:05.156Z,31.36
2017-08-01T11:49:05.205Z,31.38
2017-08-01T11:49:50.311Z,31.31
2017-08-01T11:50:50.647Z,31.38
2017-08-01T11:51:50.388Z,31.46
2017-08-01T11:52:50.706Z,31.53
2017-08-01T11:53:50.440Z,31.56
2017-08-01T11:54:50.470Z,31.46
2017-08-01T11:56:05.417Z,31.46
2017-08-01T11:56:50.540Z,31.61
2017-08-01T11:58:05.481Z,31.57
2017-08-01T11:58:50.607Z,31.58
2017-08-01T11:59:50.680Z,31.7
2017-08-01T12:00:50.965Z,31.89
2017-08-01T12:01:51.010Z,31.76
2017-08-01T12:02:51.055Z,31.89
2017-08-01T12:04:50.785Z,32.14
2017-08-01T12:05:51.137Z,31.96
2017-08-01T12:06:50.843Z,32.03
2017-08-01T12:07:51.198Z,31.96
2017-08-01T12:08:51.226Z,31.89
2017-08-01T12:09:51.263Z,31.95
2017-08-01T12:10:51.295Z,31.81
2017-08-01T12:11:51.320Z,31.91
2017-08-01T12:12:51.342Z,31.95
2017-08-01T12:13:51.375Z,31.89
2017-08-01T12:14:51.418Z,31.89
2017-08-01T12:15:51.436Z,31.81
2017-08-01T12:16:51.490Z,31.75
2017-08-01T12:17:51.207Z,31.91
2017-08-01T12:18:51.537Z,31.93
2017-08-01T12:21:51.635Z,31.8
2017-08-01T12:22:51.678Z,31.89
2017-08-01T12:23:51.694Z,31.93
2017-08-01T12:24:51.736Z,32.01
2017-08-01T12:25:51.761Z,32.03
2017-08-01T12:26:51.504Z,32.04
2017-08-01T12:27:51.834Z,31.89
2017-08-01T12:28:51.853Z,31.92
2017-08-01T12:29:51.893Z,31.81
2017-08-01T12:30:51.913Z,31.8
2017-08-01T12:31:51.960Z,31.96
2017-08-01T12:32:51.991Z,31.85
2017-08-01T12:33:52.032Z,31.84
2017-08-01T12:35:06.657Z,31.84
2017-08-01T12:35:52.083Z,31.61
2017-08-01T12:36:52.113Z,31.58
2017-08-01T12:37:52.136Z,31.62
2017-08-01T12:38:52.183Z,31.63
2017-08-01T12:39:52.218Z,31.57
2017-08-01T12:41:06.848Z,31.76
2017-08-01T12:41:51.955Z,31.86
2017-08-01T12:42:52.001Z,31.91
2017-08-01T12:43:52.023Z,31.81
2017-08-01T12:44:52.066Z,31.89
2017-08-01T12:45:52.087Z,31.62
2017-08-01T12:46:52.132Z,31.68
2017-08-01T12:47:52.452Z,31.68
2017-08-01T12:48:52.179Z,31.58
2017-08-01T12:49:52.519Z,31.68
2017-08-01T12:50:52.253Z,31.47
2017-08-01T12:51:52.593Z,31.48
2017-08-01T12:52:52.297Z,31.58
2017-08-01T12:53:52.652Z,31.51
2017-08-01T12:54:52.673Z,31.48
2017-08-01T12:55:52.412Z,31.47
2017-08-01T12:56:52.739Z,31.5
2017-08-01T12:57:52.777Z,31.48
2017-08-01T12:58:52.493Z,31.46
2017-08-01T12:59:52.521Z,31.58
2017-08-01T13:00:52.879Z,31.57
2017-08-01T13:01:52.912Z,31.75
2017-08-01T13:02:52.921Z,31.89
2017-08-01T13:03:52.968Z,31.85
2017-08-01T13:04:52.980Z,31.99
2017-08-01T13:05:53.029Z,32.07
2017-08-01T13:07:07.672Z,32.14
2017-08-01T13:08:52.830Z,32.07
2017-08-01T13:09:52.843Z,32.03
2017-08-01T13:10:52.869Z,32.11
2017-08-01T13:11:52.909Z,32.06
2017-08-01T13:12:53.247Z,31.95
2017-08-01T13:13:52.976Z,31.91
2017-08-01T13:14:53.306Z,32.06
2017-08-01T13:15:53.037Z,32.03
2017-08-01T13:16:53.367Z,31.99
2017-08-01T13:17:53.413Z,32.14
2017-08-01T13:18:53.425Z,31.93
2017-08-01T13:19:53.477Z,32.04
2017-08-01T13:20:53.173Z,32.21
2017-08-01T13:21:53.535Z,32.38
2017-08-01T13:23:08.170Z,32.51
2017-08-01T13:24:53.641Z,32.81
2017-08-01T13:26:08.247Z,32.84
2017-08-01T13:26:53.684Z,32.85
2017-08-01T13:28:08.030Z,32.94
2017-08-01T13:28:53.441Z,32.93
2017-08-01T13:29:53.790Z,33.06
2017-08-01T13:31:53.862Z,32.93
2017-08-01T13:32:53.892Z,32.88
2017-08-01T13:33:53.906Z,32.92
2017-08-01T13:34:53.949Z,32.75
2017-08-01T13:35:53.956Z,32.7
2017-08-01T13:36:54.010Z,32.65
2017-08-01T13:37:53.728Z,32.74
2017-08-01T13:39:08.671Z,32.65
2017-08-01T13:39:54.112Z,32.78
2017-08-01T13:40:54.121Z,32.74
2017-08-01T13:41:54.165Z,32.7